Hovedside
METAR-TAF:

METAR-TAF

Lufthavner :

Göteborg-Landvetter lufthavn

Göteborg-Landvetter, Sverige

breddegrad: 57-40N, lengdegrad: 012-18E, høyde over havet: 169 m

Gjeldene værobservasjon

Denne rapporten ble laget for 22 minutter siden, klokken 15:20 UTC
Vind 7 kt fra Øst-nordøst, skiftende mellom Nord og Øst-sørøst
Temperatur 18°C
Luftfuktighet 19%
Trykk 1035 hPa
Sikt 10 km eller mer
ingen skyer under 1500 m og ingen bygeskyer

METAR: ESGG 181520Z 06007KT 360V110 CAVOK 18/M06 Q1035

Tid: 17:42 (15:42 UTC)

Varsel

Denne rapporten ble laget for 4 timer og 12 minutter siden, klokken 11:30 UTC
Varsel gyldig fra 18. klokken 12 UTC til 19. klokken 12 UTC
Vind 10 kt fra Nordøst
Sikt 10 km eller mer
ingen skyer under 1500 m og ingen bygeskyer

TAF: ESGG 181130Z 1812/1912 05010KT CAVOK

Værobservasjoner og værvarsel for over 4000 flyplasser (METAR- og TAF-rapporter).

Tilgjengelige stasjoner er representert av de røde og gule prikkene på kartet.

Hold musepekeren over prikken for å se navnet på stasjonen.

Klikk så for å se værobservasjoner og -varsler.

For å forandre kartet kan du klikke på den grønne knappen med svart kryss for å zoome inn, på den grønne knappen med strek for å zoome ut, eller på de grønne pilene for å se tilstøtende kart.


METAR-TAF: